sensor_id;sensor_type;location;lat;lon;timestamp;temperature;humidity
13496;DHT22;6820;49.374;8.452;2023-12-04T00:01:19;-0.60;99.99
13496;DHT22;6820;49.374;8.452;2023-12-04T00:05:20;-0.60;99.99
13496;DHT22;6820;49.374;8.452;2023-12-04T00:09:22;-0.65;99.99
13496;DHT22;6820;49.374;8.452;2023-12-04T00:13:26;-0.67;99.99
13496;DHT22;6820;49.374;8.452;2023-12-04T00:17:27;-0.70;99.99
13496;DHT22;6820;49.374;8.452;2023-12-04T00:21:29;-0.71;99.99
13496;DHT22;6820;49.374;8.452;2023-12-04T00:25:31;-0.73;99.99
13496;DHT22;6820;49.374;8.452;2023-12-04T00:29:32;-0.74;99.99
13496;DHT22;6820;49.374;8.452;2023-12-04T00:33:34;-0.76;99.99
13496;DHT22;6820;49.374;8.452;2023-12-04T00:37:36;-0.78;99.99
13496;DHT22;6820;49.374;8.452;2023-12-04T00:41:39;-0.78;99.99
13496;DHT22;6820;49.374;8.452;2023-12-04T00:45:41;-0.81;99.99
13496;DHT22;6820;49.374;8.452;2023-12-04T00:49:43;-0.81;99.99
13496;DHT22;6820;49.374;8.452;2023-12-04T00:53:44;-0.83;99.99
13496;DHT22;6820;49.374;8.452;2023-12-04T00:57:46;-0.83;99.99
13496;DHT22;6820;49.374;8.452;2023-12-04T01:01:48;-0.85;99.99
13496;DHT22;6820;49.374;8.452;2023-12-04T01:05:49;-0.86;99.99
13496;DHT22;6820;49.374;8.452;2023-12-04T01:09:51;-0.86;99.99
13496;DHT22;6820;49.374;8.452;2023-12-04T01:13:54;-0.89;99.99
13496;DHT22;6820;49.374;8.452;2023-12-04T01:17:56;-0.89;99.99
13496;DHT22;6820;49.374;8.452;2023-12-04T01:21:57;-0.89;99.99
13496;DHT22;6820;49.374;8.452;2023-12-04T01:25:59;-0.86;99.99
13496;DHT22;6820;49.374;8.452;2023-12-04T01:30:01;-0.85;99.99
13496;DHT22;6820;49.374;8.452;2023-12-04T01:34:03;-0.83;99.99
13496;DHT22;6820;49.374;8.452;2023-12-04T01:38:05;-0.83;99.99
13496;DHT22;6820;49.374;8.452;2023-12-04T01:42:06;-0.83;99.99
13496;DHT22;6820;49.374;8.452;2023-12-04T01:46:08;-0.83;99.99
13496;DHT22;6820;49.374;8.452;2023-12-04T01:50:10;-0.83;99.99
13496;DHT22;6820;49.374;8.452;2023-12-04T01:54:13;-0.81;99.99
13496;DHT22;6820;49.374;8.452;2023-12-04T01:58:16;-0.83;99.99
13496;DHT22;6820;49.374;8.452;2023-12-04T02:02:21;-0.81;99.99
13496;DHT22;6820;49.374;8.452;2023-12-04T02:06:22;-0.83;99.99
13496;DHT22;6820;49.374;8.452;2023-12-04T02:10:24;-0.83;99.99
13496;DHT22;6820;49.374;8.452;2023-12-04T02:14:26;-0.85;99.99
13496;DHT22;6820;49.374;8.452;2023-12-04T02:18:28;-0.86;99.99
13496;DHT22;6820;49.374;8.452;2023-12-04T02:22:29;-0.89;99.99
13496;DHT22;6820;49.374;8.452;2023-12-04T02:26:35;-0.89;99.99
13496;DHT22;6820;49.374;8.452;2023-12-04T02:30:43;-0.89;99.99
13496;DHT22;6820;49.374;8.452;2023-12-04T02:34:47;-0.86;99.99
13496;DHT22;6820;49.374;8.452;2023-12-04T02:38:50;-0.86;99.99
13496;DHT22;6820;49.374;8.452;2023-12-04T02:42:53;-0.86;99.99
13496;DHT22;6820;49.374;8.452;2023-12-04T02:46:55;-0.86;99.99
13496;DHT22;6820;49.374;8.452;2023-12-04T02:50:57;-0.86;99.99
13496;DHT22;6820;49.374;8.452;2023-12-04T02:54:59;-0.85;99.99
13496;DHT22;6820;49.374;8.452;2023-12-04T02:59:00;-0.86;99.99
13496;DHT22;6820;49.374;8.452;2023-12-04T03:03:02;-0.85;99.99
13496;DHT22;6820;49.374;8.452;2023-12-04T03:07:04;-0.83;99.99
13496;DHT22;6820;49.374;8.452;2023-12-04T03:11:07;-0.78;99.99
13496;DHT22;6820;49.374;8.452;2023-12-04T03:15:08;-0.78;99.99
13496;DHT22;6820;49.374;8.452;2023-12-04T03:19:11;-0.78;99.99
13496;DHT22;6820;49.374;8.452;2023-12-04T03:23:13;-0.76;99.99
13496;DHT22;6820;49.374;8.452;2023-12-04T03:27:15;-0.76;99.99
13496;DHT22;6820;49.374;8.452;2023-12-04T03:31:16;-0.77;99.99
13496;DHT22;6820;49.374;8.452;2023-12-04T03:35:18;-0.80;99.99
13496;DHT22;6820;49.374;8.452;2023-12-04T03:39:20;-0.78;99.99
13496;DHT22;6820;49.374;8.452;2023-12-04T03:43:21;-0.80;99.99
13496;DHT22;6820;49.374;8.452;2023-12-04T03:47:23;-0.80;99.99
13496;DHT22;6820;49.374;8.452;2023-12-04T03:51:26;-0.80;99.99
13496;DHT22;6820;49.374;8.452;2023-12-04T03:55:28;-0.78;99.99
13496;DHT22;6820;49.374;8.452;2023-12-04T03:59:30;-0.78;99.99
13496;DHT22;6820;49.374;8.452;2023-12-04T04:03:32;-0.78;99.99
13496;DHT22;6820;49.374;8.452;2023-12-04T04:07:35;-0.80;99.99
13496;DHT22;6820;49.374;8.452;2023-12-04T04:11:36;-0.80;99.99
13496;DHT22;6820;49.374;8.452;2023-12-04T04:15:38;-0.80;99.99
13496;DHT22;6820;49.374;8.452;2023-12-04T04:19:40;-0.80;99.99
13496;DHT22;6820;49.374;8.452;2023-12-04T04:23:42;-0.78;99.99
13496;DHT22;6820;49.374;8.452;2023-12-04T04:27:44;-0.80;99.99
13496;DHT22;6820;49.374;8.452;2023-12-04T04:31:45;-0.78;99.99
13496;DHT22;6820;49.374;8.452;2023-12-04T04:35:47;-0.78;99.99
13496;DHT22;6820;49.374;8.452;2023-12-04T04:39:48;-0.78;99.99
13496;DHT22;6820;49.374;8.452;2023-12-04T04:43:50;-0.80;99.99
13496;DHT22;6820;49.374;8.452;2023-12-04T04:47:52;-0.80;99.99
13496;DHT22;6820;49.374;8.452;2023-12-04T04:51:54;-0.92;99.99
13496;DHT22;6820;49.374;8.452;2023-12-04T04:55:56;-0.83;99.99
13496;DHT22;6820;49.374;8.452;2023-12-04T04:59:59;-0.86;99.99
13496;DHT22;6820;49.374;8.452;2023-12-04T05:04:00;-0.86;99.99
13496;DHT22;6820;49.374;8.452;2023-12-04T05:08:02;-0.89;99.99
13496;DHT22;6820;49.374;8.452;2023-12-04T05:12:04;-0.89;99.99
13496;DHT22;6820;49.374;8.452;2023-12-04T05:16:06;-0.90;99.99
13496;DHT22;6820;49.374;8.452;2023-12-04T05:20:08;-0.90;99.99
13496;DHT22;6820;49.374;8.452;2023-12-04T05:24:10;-0.90;99.99
13496;DHT22;6820;49.374;8.452;2023-12-04T05:28:12;-0.92;99.99
13496;DHT22;6820;49.374;8.452;2023-12-04T05:32:13;-0.90;99.99
13496;DHT22;6820;49.374;8.452;2023-12-04T05:36:15;-0.92;99.99
13496;DHT22;6820;49.374;8.452;2023-12-04T05:40:16;-0.92;99.99
13496;DHT22;6820;49.374;8.452;2023-12-04T05:44:18;-0.95;99.99
13496;DHT22;6820;49.374;8.452;2023-12-04T05:48:20;-0.95;99.99
13496;DHT22;6820;49.374;8.452;2023-12-04T05:52:22;-0.96;99.99
13496;DHT22;6820;49.374;8.452;2023-12-04T05:56:24;-0.99;99.99
13496;DHT22;6820;49.374;8.452;2023-12-04T06:00:25;-0.99;99.99
13496;DHT22;6820;49.374;8.452;2023-12-04T06:04:30;-1.00;99.99
13496;DHT22;6820;49.374;8.452;2023-12-04T06:08:31;-0.99;99.99
13496;DHT22;6820;49.374;8.452;2023-12-04T06:12:33;-1.03;99.99
13496;DHT22;6820;49.374;8.452;2023-12-04T06:16:35;-1.02;99.99
13496;DHT22;6820;49.374;8.452;2023-12-04T06:20:37;-1.02;99.99
13496;DHT22;6820;49.374;8.452;2023-12-04T06:24:38;-1.02;99.99
13496;DHT22;6820;49.374;8.452;2023-12-04T06:28:40;-1.02;99.99
13496;DHT22;6820;49.374;8.452;2023-12-04T06:32:42;-1.02;99.99
13496;DHT22;6820;49.374;8.452;2023-12-04T06:36:44;-0.99;99.99
13496;DHT22;6820;49.374;8.452;2023-12-04T06:40:46;-0.97;99.99
13496;DHT22;6820;49.374;8.452;2023-12-04T06:44:48;-0.99;99.99
13496;DHT22;6820;49.374;8.452;2023-12-04T06:48:50;-0.93;99.99
13496;DHT22;6820;49.374;8.452;2023-12-04T06:52:56;-0.93;99.99
13496;DHT22;6820;49.374;8.452;2023-12-04T06:56:58;-0.92;99.99
13496;DHT22;6820;49.374;8.452;2023-12-04T07:01:00;-0.92;99.99
13496;DHT22;6820;49.374;8.452;2023-12-04T07:05:02;-0.90;99.99
13496;DHT22;6820;49.374;8.452;2023-12-04T07:09:04;-0.89;99.99
13496;DHT22;6820;49.374;8.452;2023-12-04T07:13:08;-0.85;99.99
13496;DHT22;6820;49.374;8.452;2023-12-04T07:17:10;-0.83;99.99
13496;DHT22;6820;49.374;8.452;2023-12-04T07:21:13;-0.81;99.99
13496;DHT22;6820;49.374;8.452;2023-12-04T07:25:14;-0.76;99.99
13496;DHT22;6820;49.374;8.452;2023-12-04T07:29:17;-0.71;99.99
13496;DHT22;6820;49.374;8.452;2023-12-04T07:33:20;-0.68;99.99
13496;DHT22;6820;49.374;8.452;2023-12-04T07:37:22;-0.63;99.99
13496;DHT22;6820;49.374;8.452;2023-12-04T07:41:23;-0.59;99.99
13496;DHT22;6820;49.374;8.452;2023-12-04T07:45:26;-0.56;99.99
13496;DHT22;6820;49.374;8.452;2023-12-04T07:49:28;-0.50;99.99
13496;DHT22;6820;49.374;8.452;2023-12-04T07:53:30;-0.45;99.99
13496;DHT22;6820;49.374;8.452;2023-12-04T07:57:31;-0.38;99.99
13496;DHT22;6820;49.374;8.452;2023-12-04T08:01:33;-0.34;99.99
13496;DHT22;6820;49.374;8.452;2023-12-04T08:05:36;-0.31;99.99
13496;DHT22;6820;49.374;8.452;2023-12-04T08:09:37;-0.27;99.99
13496;DHT22;6820;49.374;8.452;2023-12-04T08:13:40;-0.21;99.99
13496;DHT22;6820;49.374;8.452;2023-12-04T08:17:41;-0.19;99.99
13496;DHT22;6820;49.374;8.452;2023-12-04T08:21:43;-0.19;99.99
13496;DHT22;6820;49.374;8.452;2023-12-04T08:25:45;-0.14;99.99
13496;DHT22;6820;49.374;8.452;2023-12-04T08:29:47;-0.17;99.99
13496;DHT22;6820;49.374;8.452;2023-12-04T08:33:48;-0.14;99.99
13496;DHT22;6820;49.374;8.452;2023-12-04T08:37:50;-0.12;99.99
13496;DHT22;6820;49.374;8.452;2023-12-04T08:41:52;-0.03;99.99
13496;DHT22;6820;49.374;8.452;2023-12-04T08:46:04;0.07;99.99
13496;DHT22;6820;49.374;8.452;2023-12-04T08:50:06;0.19;99.99
13496;DHT22;6820;49.374;8.452;2023-12-04T08:54:09;0.30;99.99
13496;DHT22;6820;49.374;8.452;2023-12-04T08:58:14;0.34;99.99
13496;DHT22;6820;49.374;8.452;2023-12-04T09:02:17;0.40;99.99
13496;DHT22;6820;49.374;8.452;2023-12-04T09:06:19;0.40;99.99
13496;DHT22;6820;49.374;8.452;2023-12-04T09:10:44;0.44;99.99
13496;DHT22;6820;49.374;8.452;2023-12-04T09:15:07;0.48;99.99
13496;DHT22;6820;49.374;8.452;2023-12-04T09:19:10;0.52;99.99
13496;DHT22;6820;49.374;8.452;2023-12-04T09:23:12;0.56;99.99
13496;DHT22;6820;49.374;8.452;2023-12-04T09:27:15;0.53;99.99
13496;DHT22;6820;49.374;8.452;2023-12-04T09:31:19;0.56;99.99
13496;DHT22;6820;49.374;8.452;2023-12-04T09:35:21;0.57;99.99
13496;DHT22;6820;49.374;8.452;2023-12-04T09:39:24;0.59;99.99
13496;DHT22;6820;49.374;8.452;2023-12-04T09:43:26;0.62;99.99
13496;DHT22;6820;49.374;8.452;2023-12-04T09:47:36;0.64;99.99
13496;DHT22;6820;49.374;8.452;2023-12-04T09:51:40;0.70;99.99
13496;DHT22;6820;49.374;8.452;2023-12-04T09:55:42;0.72;99.99
13496;DHT22;6820;49.374;8.452;2023-12-04T09:59:49;0.74;99.99
13496;DHT22;6820;49.374;8.452;2023-12-04T10:03:53;0.77;99.99
13496;DHT22;6820;49.374;8.452;2023-12-04T10:07:59;0.80;99.99
13496;DHT22;6820;49.374;8.452;2023-12-04T10:12:02;1.06;99.99
13496;DHT22;6820;49.374;8.452;2023-12-04T10:16:08;1.10;99.99
13496;DHT22;6820;49.374;8.452;2023-12-04T10:20:18;1.04;99.99
13496;DHT22;6820;49.374;8.452;2023-12-04T10:24:33;0.98;99.99
13496;DHT22;6820;49.374;8.452;2023-12-04T10:28:41;0.93;99.99
13496;DHT22;6820;49.374;8.452;2023-12-04T10:33:01;0.93;99.99
13496;DHT22;6820;49.374;8.452;2023-12-04T10:37:04;0.90;99.99
13496;DHT22;6820;49.374;8.452;2023-12-04T10:41:12;0.89;99.99
13496;DHT22;6820;49.374;8.452;2023-12-04T10:45:15;0.89;99.99
13496;DHT22;6820;49.374;8.452;2023-12-04T10:49:17;0.89;99.99
13496;DHT22;6820;49.374;8.452;2023-12-04T10:53:20;0.82;99.99
13496;DHT22;6820;49.374;8.452;2023-12-04T10:57:27;0.81;99.99
13496;DHT22;6820;49.374;8.452;2023-12-04T11:01:34;0.77;99.99
13496;DHT22;6820;49.374;8.452;2023-12-04T11:05:37;0.77;99.99
13496;DHT22;6820;49.374;8.452;2023-12-04T11:09:41;0.75;99.99
13496;DHT22;6820;49.374;8.452;2023-12-04T11:13:45;0.74;99.99
13496;DHT22;6820;49.374;8.452;2023-12-04T11:17:53;0.71;99.99
13496;DHT22;6820;49.374;8.452;2023-12-04T11:21:58;0.68;99.99
13496;DHT22;6820;49.374;8.452;2023-12-04T11:26:01;0.71;99.99
13496;DHT22;6820;49.374;8.452;2023-12-04T11:30:05;0.72;99.99
13496;DHT22;6820;49.374;8.452;2023-12-04T11:34:08;0.78;99.99
13496;DHT22;6820;49.374;8.452;2023-12-04T11:38:18;0.82;99.99
13496;DHT22;6820;49.374;8.452;2023-12-04T11:42:23;0.90;99.99
13496;DHT22;6820;49.374;8.452;2023-12-04T11:46:27;0.96;99.99
13496;DHT22;6820;49.374;8.452;2023-12-04T11:50:34;1.04;99.99
13496;DHT22;6820;49.374;8.452;2023-12-04T11:59:08;1.08;99.99
13496;DHT22;6820;49.374;8.452;2023-12-04T12:03:14;1.10;99.99
13496;DHT22;6820;49.374;8.452;2023-12-04T12:07:23;1.13;99.99
13496;DHT22;6820;49.374;8.452;2023-12-04T12:11:26;1.17;99.99
13496;DHT22;6820;49.374;8.452;2023-12-04T12:15:28;1.21;99.99
13496;DHT22;6820;49.374;8.452;2023-12-04T12:19:34;1.20;99.99
13496;DHT22;6820;49.374;8.452;2023-12-04T12:23:36;1.20;99.99
13496;DHT22;6820;49.374;8.452;2023-12-04T12:27:38;1.21;99.99
13496;DHT22;6820;49.374;8.452;2023-12-04T12:31:43;1.20;99.99
13496;DHT22;6820;49.374;8.452;2023-12-04T12:35:44;1.21;99.99
13496;DHT22;6820;49.374;8.452;2023-12-04T12:40:00;1.32;99.99
13496;DHT22;6820;49.374;8.452;2023-12-04T12:44:02;1.39;99.99
13496;DHT22;6820;49.374;8.452;2023-12-04T12:48:05;1.43;99.99
13496;DHT22;6820;49.374;8.452;2023-12-04T12:52:07;1.47;99.99
13496;DHT22;6820;49.374;8.452;2023-12-04T12:56:11;1.50;99.99
13496;DHT22;6820;49.374;8.452;2023-12-04T13:00:15;1.53;99.99
13496;DHT22;6820;49.374;8.452;2023-12-04T13:04:17;1.56;99.99
13496;DHT22;6820;49.374;8.452;2023-12-04T13:08:22;1.63;99.99
13496;DHT22;6820;49.374;8.452;2023-12-04T13:12:24;1.64;99.99
13496;DHT22;6820;49.374;8.452;2023-12-04T13:16:26;1.65;99.99
13496;DHT22;6820;49.374;8.452;2023-12-04T13:20:29;1.60;99.99
13496;DHT22;6820;49.374;8.452;2023-12-04T13:24:31;1.52;99.99
13496;DHT22;6820;49.374;8.452;2023-12-04T13:28:33;1.47;99.99
13496;DHT22;6820;49.374;8.452;2023-12-04T13:32:44;1.43;99.99
13496;DHT22;6820;49.374;8.452;2023-12-04T13:36:46;1.39;99.99
13496;DHT22;6820;49.374;8.452;2023-12-04T13:40:48;1.39;99.99
13496;DHT22;6820;49.374;8.452;2023-12-04T13:45:01;1.39;99.99
13496;DHT22;6820;49.374;8.452;2023-12-04T13:49:03;1.42;99.99
13496;DHT22;6820;49.374;8.452;2023-12-04T13:53:06;1.35;99.99
13496;DHT22;6820;49.374;8.452;2023-12-04T13:57:09;1.31;99.99
13496;DHT22;6820;49.374;8.452;2023-12-04T14:01:14;1.29;99.99
13496;DHT22;6820;49.374;8.452;2023-12-04T14:05:19;1.29;99.99
13496;DHT22;6820;49.374;8.452;2023-12-04T14:09:23;1.25;99.99
13496;DHT22;6820;49.374;8.452;2023-12-04T14:13:24;1.26;99.99
13496;DHT22;6820;49.374;8.452;2023-12-04T14:17:26;1.28;99.99
13496;DHT22;6820;49.374;8.452;2023-12-04T14:21:28;1.31;99.99
13496;DHT22;6820;49.374;8.452;2023-12-04T14:25:29;1.32;99.99
13496;DHT22;6820;49.374;8.452;2023-12-04T14:29:31;1.34;99.99
13496;DHT22;6820;49.374;8.452;2023-12-04T14:33:33;1.35;99.99
13496;DHT22;6820;49.374;8.452;2023-12-04T14:37:36;1.35;99.99
13496;DHT22;6820;49.374;8.452;2023-12-04T14:41:37;1.38;99.99
13496;DHT22;6820;49.374;8.452;2023-12-04T14:45:39;1.42;99.99
13496;DHT22;6820;49.374;8.452;2023-12-04T14:49:41;1.43;99.99
13496;DHT22;6820;49.374;8.452;2023-12-04T14:53:42;1.44;99.99
13496;DHT22;6820;49.374;8.452;2023-12-04T14:57:44;1.44;99.99
13496;DHT22;6820;49.374;8.452;2023-12-04T15:02:09;1.44;99.99
13496;DHT22;6820;49.374;8.452;2023-12-04T15:06:30;1.47;99.99
13496;DHT22;6820;49.374;8.452;2023-12-04T15:10:34;1.50;99.99
13496;DHT22;6820;49.374;8.452;2023-12-04T15:14:44;1.50;99.99
13496;DHT22;6820;49.374;8.452;2023-12-04T15:18:57;1.53;99.99
13496;DHT22;6820;49.374;8.452;2023-12-04T15:23:19;1.54;99.99
13496;DHT22;6820;49.374;8.452;2023-12-04T15:27:20;1.56;99.99
13496;DHT22;6820;49.374;8.452;2023-12-04T15:31:22;1.61;99.99
13496;DHT22;6820;49.374;8.452;2023-12-04T15:35:23;1.61;99.99
13496;DHT22;6820;49.374;8.452;2023-12-04T15:39:25;1.63;99.99
13496;DHT22;6820;49.374;8.452;2023-12-04T15:43:27;1.64;99.99
13496;DHT22;6820;49.374;8.452;2023-12-04T15:47:28;1.68;99.99
13496;DHT22;6820;49.374;8.452;2023-12-04T15:51:30;1.70;99.99
13496;DHT22;6820;49.374;8.452;2023-12-04T15:55:32;1.74;99.99
13496;DHT22;6820;49.374;8.452;2023-12-04T15:59:34;1.75;99.99
13496;DHT22;6820;49.374;8.452;2023-12-04T16:03:35;1.81;99.99
13496;DHT22;6820;49.374;8.452;2023-12-04T16:07:37;1.83;99.99
13496;DHT22;6820;49.374;8.452;2023-12-04T16:11:39;1.86;99.99
13496;DHT22;6820;49.374;8.452;2023-12-04T16:15:42;1.89;99.99
13496;DHT22;6820;49.374;8.452;2023-12-04T16:19:48;1.89;99.99
13496;DHT22;6820;49.374;8.452;2023-12-04T16:23:50;1.90;99.99
13496;DHT22;6820;49.374;8.452;2023-12-04T16:27:58;1.90;99.99
13496;DHT22;6820;49.374;8.452;2023-12-04T16:32:03;1.92;99.99
13496;DHT22;6820;49.374;8.452;2023-12-04T16:36:05;1.92;99.99
13496;DHT22;6820;49.374;8.452;2023-12-04T16:40:08;1.93;99.99
13496;DHT22;6820;49.374;8.452;2023-12-04T16:44:10;1.93;99.99
13496;DHT22;6820;49.374;8.452;2023-12-04T16:48:16;1.92;99.99
13496;DHT22;6820;49.374;8.452;2023-12-04T16:52:18;1.90;99.99
13496;DHT22;6820;49.374;8.452;2023-12-04T16:56:20;1.92;99.99
13496;DHT22;6820;49.374;8.452;2023-12-04T17:00:21;1.93;99.99
13496;DHT22;6820;49.374;8.452;2023-12-04T17:04:23;1.98;99.99
13496;DHT22;6820;49.374;8.452;2023-12-04T17:08:25;2.00;99.99
13496;DHT22;6820;49.374;8.452;2023-12-04T17:12:27;2.05;99.99
13496;DHT22;6820;49.374;8.452;2023-12-04T17:16:28;2.05;99.99
13496;DHT22;6820;49.374;8.452;2023-12-04T17:20:31;2.09;99.99
13496;DHT22;6820;49.374;8.452;2023-12-04T17:24:32;2.12;99.99
13496;DHT22;6820;49.374;8.452;2023-12-04T17:28:34;2.14;99.99
13496;DHT22;6820;49.374;8.452;2023-12-04T17:32:36;2.15;99.99
13496;DHT22;6820;49.374;8.452;2023-12-04T17:36:39;2.18;99.99
13496;DHT22;6820;49.374;8.452;2023-12-04T17:40:42;2.15;99.99
13496;DHT22;6820;49.374;8.452;2023-12-04T17:44:44;2.48;99.99
13496;DHT22;6820;49.374;8.452;2023-12-04T17:48:46;2.66;99.99
13496;DHT22;6820;49.374;8.452;2023-12-04T17:52:49;2.51;99.99
13496;DHT22;6820;49.374;8.452;2023-12-04T17:56:51;2.40;99.99
13496;DHT22;6820;49.374;8.452;2023-12-04T18:00:52;2.33;99.99
13496;DHT22;6820;49.374;8.452;2023-12-04T18:04:54;2.32;99.99
13496;DHT22;6820;49.374;8.452;2023-12-04T18:08:56;2.32;99.99
13496;DHT22;6820;49.374;8.452;2023-12-04T18:12:58;2.33;99.99
13496;DHT22;6820;49.374;8.452;2023-12-04T18:17:04;2.32;99.99
13496;DHT22;6820;49.374;8.452;2023-12-04T18:21:07;2.33;99.99
13496;DHT22;6820;49.374;8.452;2023-12-04T18:25:10;2.33;99.99
13496;DHT22;6820;49.374;8.452;2023-12-04T18:29:12;2.37;99.99
13496;DHT22;6820;49.374;8.452;2023-12-04T18:33:14;2.38;99.99
13496;DHT22;6820;49.374;8.452;2023-12-04T18:37:19;2.38;99.99
13496;DHT22;6820;49.374;8.452;2023-12-04T18:41:23;2.41;99.99
13496;DHT22;6820;49.374;8.452;2023-12-04T18:45:25;2.40;99.99
13496;DHT22;6820;49.374;8.452;2023-12-04T18:49:27;2.41;99.99
13496;DHT22;6820;49.374;8.452;2023-12-04T18:53:30;2.43;99.99
13496;DHT22;6820;49.374;8.452;2023-12-04T18:57:32;2.44;99.99
13496;DHT22;6820;49.374;8.452;2023-12-04T19:01:34;2.45;99.99
13496;DHT22;6820;49.374;8.452;2023-12-04T19:05:37;2.48;99.99
13496;DHT22;6820;49.374;8.452;2023-12-04T19:09:39;2.48;99.99
13496;DHT22;6820;49.374;8.452;2023-12-04T19:13:40;2.51;99.99
13496;DHT22;6820;49.374;8.452;2023-12-04T19:17:42;2.55;99.99
13496;DHT22;6820;49.374;8.452;2023-12-04T19:21:44;2.55;99.99
13496;DHT22;6820;49.374;8.452;2023-12-04T19:25:45;2.55;99.99
13496;DHT22;6820;49.374;8.452;2023-12-04T19:29:51;2.56;99.99
13496;DHT22;6820;49.374;8.452;2023-12-04T19:33:53;2.56;99.99
13496;DHT22;6820;49.374;8.452;2023-12-04T19:37:55;2.58;99.99
13496;DHT22;6820;49.374;8.452;2023-12-04T19:41:56;2.59;99.99
13496;DHT22;6820;49.374;8.452;2023-12-04T19:46:01;2.59;99.99
13496;DHT22;6820;49.374;8.452;2023-12-04T19:50:04;2.59;99.99
13496;DHT22;6820;49.374;8.452;2023-12-04T19:54:09;2.62;99.99
13496;DHT22;6820;49.374;8.452;2023-12-04T19:58:11;2.62;99.99
13496;DHT22;6820;49.374;8.452;2023-12-04T20:02:13;2.63;99.99
13496;DHT22;6820;49.374;8.452;2023-12-04T20:06:14;2.63;99.99
13496;DHT22;6820;49.374;8.452;2023-12-04T20:10:16;2.63;99.99
13496;DHT22;6820;49.374;8.452;2023-12-04T20:14:18;2.65;99.99
13496;DHT22;6820;49.374;8.452;2023-12-04T20:18:19;2.63;99.99
13496;DHT22;6820;49.374;8.452;2023-12-04T20:22:21;2.66;99.99
13496;DHT22;6820;49.374;8.452;2023-12-04T20:26:23;2.68;99.99
13496;DHT22;6820;49.374;8.452;2023-12-04T20:30:24;2.65;99.99
13496;DHT22;6820;49.374;8.452;2023-12-04T20:34:26;2.66;99.99
13496;DHT22;6820;49.374;8.452;2023-12-04T20:38:28;2.63;99.99
13496;DHT22;6820;49.374;8.452;2023-12-04T20:42:30;2.63;99.99
13496;DHT22;6820;49.374;8.452;2023-12-04T20:46:32;2.62;99.99
13496;DHT22;6820;49.374;8.452;2023-12-04T20:50:34;2.61;99.99
13496;DHT22;6820;49.374;8.452;2023-12-04T20:54:36;2.58;99.99
13496;DHT22;6820;49.374;8.452;2023-12-04T20:58:38;2.59;99.99
13496;DHT22;6820;49.374;8.452;2023-12-04T21:02:40;2.59;99.99
13496;DHT22;6820;49.374;8.452;2023-12-04T21:06:42;2.58;99.99
13496;DHT22;6820;49.374;8.452;2023-12-04T21:10:43;2.56;99.99
13496;DHT22;6820;49.374;8.452;2023-12-04T21:14:46;2.56;99.99
13496;DHT22;6820;49.374;8.452;2023-12-04T21:18:47;2.56;99.99
13496;DHT22;6820;49.374;8.452;2023-12-04T21:22:50;2.56;99.99
13496;DHT22;6820;49.374;8.452;2023-12-04T21:26:52;2.56;99.99
13496;DHT22;6820;49.374;8.452;2023-12-04T21:30:54;2.58;99.99
13496;DHT22;6820;49.374;8.452;2023-12-04T21:34:58;2.62;99.99
13496;DHT22;6820;49.374;8.452;2023-12-04T21:39:03;2.58;99.99
13496;DHT22;6820;49.374;8.452;2023-12-04T21:43:06;2.59;99.99
13496;DHT22;6820;49.374;8.452;2023-12-04T21:47:07;2.59;99.99
13496;DHT22;6820;49.374;8.452;2023-12-04T21:51:09;2.62;99.99
13496;DHT22;6820;49.374;8.452;2023-12-04T21:55:12;2.62;99.99
13496;DHT22;6820;49.374;8.452;2023-12-04T21:59:17;2.62;99.99
13496;DHT22;6820;49.374;8.452;2023-12-04T22:03:30;2.63;99.99
13496;DHT22;6820;49.374;8.452;2023-12-04T22:07:32;2.65;99.99
13496;DHT22;6820;49.374;8.452;2023-12-04T22:11:34;2.65;99.99
13496;DHT22;6820;49.374;8.452;2023-12-04T22:15:35;2.65;99.99
13496;DHT22;6820;49.374;8.452;2023-12-04T22:19:37;2.66;99.99
13496;DHT22;6820;49.374;8.452;2023-12-04T22:23:42;2.68;99.99
13496;DHT22;6820;49.374;8.452;2023-12-04T22:27:44;2.69;99.99
13496;DHT22;6820;49.374;8.452;2023-12-04T22:31:46;2.68;99.99
13496;DHT22;6820;49.374;8.452;2023-12-04T22:35:48;2.71;99.99
13496;DHT22;6820;49.374;8.452;2023-12-04T22:39:52;2.71;99.99
13496;DHT22;6820;49.374;8.452;2023-12-04T22:43:54;2.73;99.99
13496;DHT22;6820;49.374;8.452;2023-12-04T22:48:01;2.73;99.99
13496;DHT22;6820;49.374;8.452;2023-12-04T22:52:05;2.76;99.99
13496;DHT22;6820;49.374;8.452;2023-12-04T22:56:07;2.76;99.99
13496;DHT22;6820;49.374;8.452;2023-12-04T23:00:17;2.79;99.99
13496;DHT22;6820;49.374;8.452;2023-12-04T23:04:21;2.77;99.99
13496;DHT22;6820;49.374;8.452;2023-12-04T23:08:23;2.80;99.99
13496;DHT22;6820;49.374;8.452;2023-12-04T23:12:45;2.80;99.99
13496;DHT22;6820;49.374;8.452;2023-12-04T23:16:48;2.83;99.99
13496;DHT22;6820;49.374;8.452;2023-12-04T23:20:50;2.84;99.99
13496;DHT22;6820;49.374;8.452;2023-12-04T23:24:52;2.84;99.99
13496;DHT22;6820;49.374;8.452;2023-12-04T23:28:53;2.87;99.99
13496;DHT22;6820;49.374;8.452;2023-12-04T23:32:55;2.90;99.99
13496;DHT22;6820;49.374;8.452;2023-12-04T23:36:57;2.92;99.99
13496;DHT22;6820;49.374;8.452;2023-12-04T23:40:59;2.97;99.99
13496;DHT22;6820;49.374;8.452;2023-12-04T23:45:09;2.97;99.99
13496;DHT22;6820;49.374;8.452;2023-12-04T23:49:11;2.99;99.99
13496;DHT22;6820;49.374;8.452;2023-12-04T23:53:13;3.01;99.99
13496;DHT22;6820;49.374;8.452;2023-12-04T23:57:14;3.01;99.99
